sensor_id;sensor_type;location;lat;lon;timestamp;pressure;altitude;pressure_sealevel;temperature;humidity
80103;BME280;69410;47.648;19.030;2023-04-19T00:00:08;100480.91;;;12.89;44.29
80103;BME280;69410;47.648;19.030;2023-04-19T00:00:39;100483.53;;;12.89;42.90
80103;BME280;69410;47.648;19.030;2023-04-19T00:01:10;100488.66;;;12.91;43.43
80103;BME280;69410;47.648;19.030;2023-04-19T00:01:41;100484.22;;;12.91;42.98
80103;BME280;69410;47.648;19.030;2023-04-19T00:02:12;100483.69;;;12.88;44.34
80103;BME280;69410;47.648;19.030;2023-04-19T00:02:42;100490.22;;;12.84;44.61
80103;BME280;69410;47.648;19.030;2023-04-19T00:03:13;100483.81;;;12.86;43.42
80103;BME280;69410;47.648;19.030;2023-04-19T00:03:44;100480.63;;;12.83;43.59
80103;BME280;69410;47.648;19.030;2023-04-19T00:04:16;100476.28;;;12.91;42.08
80103;BME280;69410;47.648;19.030;2023-04-19T00:04:47;100475.44;;;12.91;42.34
80103;BME280;69410;47.648;19.030;2023-04-19T00:05:18;100476.00;;;12.94;42.54
80103;BME280;69410;47.648;19.030;2023-04-19T00:05:48;100478.94;;;12.91;43.60
80103;BME280;69410;47.648;19.030;2023-04-19T00:06:19;100473.81;;;12.90;43.30
80103;BME280;69410;47.648;19.030;2023-04-19T00:06:50;100466.56;;;12.92;42.45
80103;BME280;69410;47.648;19.030;2023-04-19T00:07:21;100467.25;;;12.94;42.53
80103;BME280;69410;47.648;19.030;2023-04-19T00:07:51;100473.22;;;12.96;42.52
80103;BME280;69410;47.648;19.030;2023-04-19T00:08:22;100474.19;;;12.95;42.92
80103;BME280;69410;47.648;19.030;2023-04-19T00:08:53;100473.66;;;12.91;43.51
80103;BME280;69410;47.648;19.030;2023-04-19T00:09:24;100466.41;;;12.93;42.15
80103;BME280;69410;47.648;19.030;2023-04-19T00:09:54;100474.06;;;12.96;42.96
80103;BME280;69410;47.648;19.030;2023-04-19T00:10:25;100462.78;;;12.94;42.51
80103;BME280;69410;47.648;19.030;2023-04-19T00:10:56;100470.03;;;12.92;43.01
80103;BME280;69410;47.648;19.030;2023-04-19T00:11:27;100470.16;;;12.91;43.10
80103;BME280;69410;47.648;19.030;2023-04-19T00:11:58;100469.50;;;12.89;43.12
80103;BME280;69410;47.648;19.030;2023-04-19T00:12:28;100466.44;;;12.84;42.53
80103;BME280;69410;47.648;19.030;2023-04-19T00:12:59;100469.63;;;12.87;42.60
80103;BME280;69410;47.648;19.030;2023-04-19T00:13:30;100466.16;;;12.87;42.69
80103;BME280;69410;47.648;19.030;2023-04-19T00:14:01;100476.03;;;12.85;43.54
80103;BME280;69410;47.648;19.030;2023-04-19T00:14:31;100471.72;;;12.84;42.85
80103;BME280;69410;47.648;19.030;2023-04-19T00:15:02;100472.03;;;12.81;43.58
80103;BME280;69410;47.648;19.030;2023-04-19T00:15:33;100469.66;;;12.78;43.31
80103;BME280;69410;47.648;19.030;2023-04-19T00:16:05;100470.34;;;12.80;42.82
80103;BME280;69410;47.648;19.030;2023-04-19T00:16:36;100468.97;;;12.76;42.58
80103;BME280;69410;47.648;19.030;2023-04-19T00:17:07;100473.97;;;12.79;43.02
80103;BME280;69410;47.648;19.030;2023-04-19T00:17:37;100468.13;;;12.75;42.96
80103;BME280;69410;47.648;19.030;2023-04-19T00:18:08;100471.91;;;12.73;43.00
80103;BME280;69410;47.648;19.030;2023-04-19T00:18:39;100473.84;;;12.70;42.69
80103;BME280;69410;47.648;19.030;2023-04-19T00:19:09;100477.63;;;12.68;43.37
80103;BME280;69410;47.648;19.030;2023-04-19T00:19:42;100474.41;;;12.64;44.27
80103;BME280;69410;47.648;19.030;2023-04-19T00:20:13;100467.59;;;12.62;43.98
80103;BME280;69410;47.648;19.030;2023-04-19T00:20:43;100468.59;;;12.61;43.65
80103;BME280;69410;47.648;19.030;2023-04-19T00:21:14;100471.38;;;12.59;43.88
80103;BME280;69410;47.648;19.030;2023-04-19T00:21:45;100462.06;;;12.55;44.10
80103;BME280;69410;47.648;19.030;2023-04-19T00:22:16;100465.00;;;12.52;43.77
80103;BME280;69410;47.648;19.030;2023-04-19T00:22:46;100465.13;;;12.51;43.57
80103;BME280;69410;47.648;19.030;2023-04-19T00:23:17;100466.13;;;12.50;43.49
80103;BME280;69410;47.648;19.030;2023-04-19T00:23:48;100460.13;;;12.48;43.39
80103;BME280;69410;47.648;19.030;2023-04-19T00:24:19;100462.22;;;12.44;43.78
80103;BME280;69410;47.648;19.030;2023-04-19T00:24:49;100459.88;;;12.41;44.31
80103;BME280;69410;47.648;19.030;2023-04-19T00:25:20;100461.97;;;12.38;44.79
80103;BME280;69410;47.648;19.030;2023-04-19T00:25:51;100459.16;;;12.39;43.39
80103;BME280;69410;47.648;19.030;2023-04-19T00:26:21;100459.59;;;12.35;44.78
80103;BME280;69410;47.648;19.030;2023-04-19T00:26:52;100459.88;;;12.32;43.88
80103;BME280;69410;47.648;19.030;2023-04-19T00:27:23;100454.72;;;12.30;43.27
80103;BME280;69410;47.648;19.030;2023-04-19T00:27:54;100453.22;;;12.28;43.95
80103;BME280;69410;47.648;19.030;2023-04-19T00:28:24;100456.00;;;12.26;43.65
80103;BME280;69410;47.648;19.030;2023-04-19T00:28:55;100452.38;;;12.27;43.08
80103;BME280;69410;47.648;19.030;2023-04-19T00:29:26;100456.13;;;12.24;43.46
80103;BME280;69410;47.648;19.030;2023-04-19T00:29:57;100452.09;;;12.20;43.94
80103;BME280;69410;47.648;19.030;2023-04-19T00:30:27;100449.59;;;12.19;44.40
80103;BME280;69410;47.648;19.030;2023-04-19T00:30:58;100452.53;;;12.16;43.96
80103;BME280;69410;47.648;19.030;2023-04-19T00:31:29;100447.66;;;12.11;44.49
80103;BME280;69410;47.648;19.030;2023-04-19T00:31:59;100452.38;;;12.08;44.26
80103;BME280;69410;47.648;19.030;2023-04-19T00:32:31;100443.34;;;12.10;44.14
80103;BME280;69410;47.648;19.030;2023-04-19T00:33:02;100445.31;;;12.08;44.48
80103;BME280;69410;47.648;19.030;2023-04-19T00:33:33;100449.88;;;12.06;44.50
80103;BME280;69410;47.648;19.030;2023-04-19T00:34:04;100448.22;;;12.05;44.04
80103;BME280;69410;47.648;19.030;2023-04-19T00:34:34;100448.50;;;12.02;44.93
80103;BME280;69410;47.648;19.030;2023-04-19T00:35:07;100450.44;;;12.00;43.81
80103;BME280;69410;47.648;19.030;2023-04-19T00:35:39;100447.38;;;11.95;44.68
80103;BME280;69410;47.648;19.030;2023-04-19T00:36:10;100450.31;;;11.92;45.01
80103;BME280;69410;47.648;19.030;2023-04-19T00:36:40;100449.63;;;11.90;44.30
80103;BME280;69410;47.648;19.030;2023-04-19T00:37:11;100447.41;;;11.86;44.11
80103;BME280;69410;47.648;19.030;2023-04-19T00:37:42;100444.88;;;11.84;44.31
80103;BME280;69410;47.648;19.030;2023-04-19T00:38:13;100452.53;;;11.77;44.57
80103;BME280;69410;47.648;19.030;2023-04-19T00:38:44;100441.13;;;11.77;45.16
80103;BME280;69410;47.648;19.030;2023-04-19T00:39:14;100444.06;;;11.74;44.41
80103;BME280;69410;47.648;19.030;2023-04-19T00:39:45;100445.97;;;11.72;45.72
80103;BME280;69410;47.648;19.030;2023-04-19T00:40:16;100440.97;;;11.69;44.90
80103;BME280;69410;47.648;19.030;2023-04-19T00:40:47;100451.50;;;11.69;44.51
80103;BME280;69410;47.648;19.030;2023-04-19T00:41:18;100442.03;;;11.66;45.10
80103;BME280;69410;47.648;19.030;2023-04-19T00:41:48;100449.00;;;11.67;44.75
80103;BME280;69410;47.648;19.030;2023-04-19T00:42:19;100444.97;;;11.63;45.62
80103;BME280;69410;47.648;19.030;2023-04-19T00:42:50;100438.56;;;11.56;45.52
80103;BME280;69410;47.648;19.030;2023-04-19T00:43:21;100446.94;;;11.61;44.55
80103;BME280;69410;47.648;19.030;2023-04-19T00:43:51;100446.63;;;11.64;45.22
80103;BME280;69410;47.648;19.030;2023-04-19T00:44:23;100451.50;;;11.69;44.16
80103;BME280;69410;47.648;19.030;2023-04-19T00:44:53;100448.44;;;11.64;45.03
80103;BME280;69410;47.648;19.030;2023-04-19T00:45:25;100440.25;;;11.57;45.50
80103;BME280;69410;47.648;19.030;2023-04-19T00:45:55;100452.47;;;11.58;44.47
80103;BME280;69410;47.648;19.030;2023-04-19T00:46:27;100445.09;;;11.52;45.38
80103;BME280;69410;47.648;19.030;2023-04-19T00:46:59;100444.66;;;11.47;45.91
80103;BME280;69410;47.648;19.030;2023-04-19T00:47:30;100448.13;;;11.48;45.46
80103;BME280;69410;47.648;19.030;2023-04-19T00:48:01;100445.78;;;11.45;45.45
80103;BME280;69410;47.648;19.030;2023-04-19T00:48:33;100438.97;;;11.42;45.78
80103;BME280;69410;47.648;19.030;2023-04-19T00:49:05;100443.38;;;11.32;47.17
80103;BME280;69410;47.648;19.030;2023-04-19T00:49:36;100444.09;;;11.34;45.76
80103;BME280;69410;47.648;19.030;2023-04-19T00:50:10;100441.19;;;11.37;45.10
80103;BME280;69410;47.648;19.030;2023-04-19T00:50:42;100439.38;;;11.38;45.88
80103;BME280;69410;47.648;19.030;2023-04-19T00:51:14;100440.91;;;11.40;44.97
80103;BME280;69410;47.648;19.030;2023-04-19T00:51:46;100430.19;;;11.32;45.70
80103;BME280;69410;47.648;19.030;2023-04-19T00:52:17;100446.56;;;11.36;45.86
80103;BME280;69410;47.648;19.030;2023-04-19T00:52:50;100438.09;;;11.32;44.97
80103;BME280;69410;47.648;19.030;2023-04-19T00:53:23;100432.28;;;11.28;45.51
80103;BME280;69410;47.648;19.030;2023-04-19T00:53:54;100442.84;;;11.38;44.92
80103;BME280;69410;47.648;19.030;2023-04-19T00:54:26;100442.53;;;11.31;46.22
80103;BME280;69410;47.648;19.030;2023-04-19T00:54:57;100437.81;;;11.35;44.82
80103;BME280;69410;47.648;19.030;2023-04-19T00:55:28;100437.44;;;11.30;45.18
80103;BME280;69410;47.648;19.030;2023-04-19T00:56:01;100438.66;;;11.26;45.69
80103;BME280;69410;47.648;19.030;2023-04-19T00:56:33;100448.38;;;11.25;45.49
80103;BME280;69410;47.648;19.030;2023-04-19T00:57:04;100439.75;;;11.23;45.52
80103;BME280;69410;47.648;19.030;2023-04-19T00:57:36;100439.22;;;11.39;45.51
80103;BME280;69410;47.648;19.030;2023-04-19T00:58:08;100435.91;;;11.47;45.09
80103;BME280;69410;47.648;19.030;2023-04-19T00:58:38;100438.31;;;11.50;44.29
80103;BME280;69410;47.648;19.030;2023-04-19T00:59:10;100441.91;;;11.49;43.94
80103;BME280;69410;47.648;19.030;2023-04-19T00:59:42;100434.09;;;11.47;44.33
80103;BME280;69410;47.648;19.030;2023-04-19T01:00:13;100438.00;;;11.43;45.67
80103;BME280;69410;47.648;19.030;2023-04-19T01:00:44;100439.38;;;11.38;46.09
80103;BME280;69410;47.648;19.030;2023-04-19T01:01:15;100444.91;;;11.35;45.66
80103;BME280;69410;47.648;19.030;2023-04-19T01:01:45;100442.69;;;11.30;46.08
80103;BME280;69410;47.648;19.030;2023-04-19T01:02:17;100439.22;;;11.29;45.23
80103;BME280;69410;47.648;19.030;2023-04-19T01:02:47;100436.44;;;11.31;45.47
80103;BME280;69410;47.648;19.030;2023-04-19T01:03:18;100444.22;;;11.32;45.17
80103;BME280;69410;47.648;19.030;2023-04-19T01:03:49;100439.38;;;11.38;44.82
80103;BME280;69410;47.648;19.030;2023-04-19T01:04:20;100437.81;;;11.35;44.73
80103;BME280;69410;47.648;19.030;2023-04-19T01:04:50;100435.91;;;11.37;45.81
80103;BME280;69410;47.648;19.030;2023-04-19T01:05:23;100435.34;;;11.34;46.20
80103;BME280;69410;47.648;19.030;2023-04-19T01:05:54;100438.25;;;11.30;46.08
80103;BME280;69410;47.648;19.030;2023-04-19T01:06:25;100433.38;;;11.26;45.06
80103;BME280;69410;47.648;19.030;2023-04-19T01:06:56;100430.75;;;11.26;44.92
80103;BME280;69410;47.648;19.030;2023-04-19T01:07:27;100431.00;;;11.23;47.08
80103;BME280;69410;47.648;19.030;2023-04-19T01:07:58;100435.72;;;11.19;46.46
80103;BME280;69410;47.648;19.030;2023-04-19T01:08:29;100440.03;;;11.20;46.30
80103;BME280;69410;47.648;19.030;2023-04-19T01:09:00;100427.81;;;11.19;45.41
80103;BME280;69410;47.648;19.030;2023-04-19T01:09:31;100433.91;;;11.20;45.00
80103;BME280;69410;47.648;19.030;2023-04-19T01:10:01;100438.22;;;11.21;46.17
80103;BME280;69410;47.648;19.030;2023-04-19T01:10:32;100432.22;;;11.19;45.94
80103;BME280;69410;47.648;19.030;2023-04-19T01:11:04;100423.75;;;11.15;46.00
80103;BME280;69410;47.648;19.030;2023-04-19T01:11:34;100426.69;;;11.12;45.73
80103;BME280;69410;47.648;19.030;2023-04-19T01:12:05;100426.56;;;11.14;46.65
80103;BME280;69410;47.648;19.030;2023-04-19T01:12:36;100431.25;;;11.10;46.07
80103;BME280;69410;47.648;19.030;2023-04-19T01:13:07;100423.47;;;11.09;45.39
80103;BME280;69410;47.648;19.030;2023-04-19T01:13:37;100423.34;;;11.10;45.51
80103;BME280;69410;47.648;19.030;2023-04-19T01:14:08;100421.53;;;11.11;46.32
80103;BME280;69410;47.648;19.030;2023-04-19T01:14:39;100428.75;;;11.09;46.87
80103;BME280;69410;47.648;19.030;2023-04-19T01:15:10;100426.13;;;11.09;46.82
80103;BME280;69410;47.648;19.030;2023-04-19T01:15:41;100425.28;;;11.08;46.11
80103;BME280;69410;47.648;19.030;2023-04-19T01:16:12;100423.88;;;11.04;46.00
80103;BME280;69410;47.648;19.030;2023-04-19T01:16:42;100423.31;;;11.01;47.41
80103;BME280;69410;47.648;19.030;2023-04-19T01:17:14;100419.84;;;11.00;46.97
80103;BME280;69410;47.648;19.030;2023-04-19T01:17:45;100416.41;;;11.09;44.66
80103;BME280;69410;47.648;19.030;2023-04-19T01:18:16;100416.13;;;11.12;45.56
80103;BME280;69410;47.648;19.030;2023-04-19T01:18:47;100414.63;;;11.10;45.29
80103;BME280;69410;47.648;19.030;2023-04-19T01:19:18;100408.91;;;11.05;45.08
80103;BME280;69410;47.648;19.030;2023-04-19T01:19:49;100415.97;;;11.04;45.13
80103;BME280;69410;47.648;19.030;2023-04-19T01:20:20;100417.91;;;11.02;46.70
80103;BME280;69410;47.648;19.030;2023-04-19T01:20:52;100411.94;;;11.00;46.13
80103;BME280;69410;47.648;19.030;2023-04-19T01:21:22;100412.09;;;10.99;46.48
80103;BME280;69410;47.648;19.030;2023-04-19T01:21:53;100414.13;;;10.95;45.70
80103;BME280;69410;47.648;19.030;2023-04-19T01:22:25;100406.22;;;10.95;45.67
80103;BME280;69410;47.648;19.030;2023-04-19T01:22:56;100404.41;;;10.96;45.82
80103;BME280;69410;47.648;19.030;2023-04-19T01:23:27;100409.56;;;10.97;45.96
80103;BME280;69410;47.648;19.030;2023-04-19T01:23:57;100410.69;;;10.95;46.19
80103;BME280;69410;47.648;19.030;2023-04-19T01:24:28;100403.19;;;10.90;46.08
80103;BME280;69410;47.648;19.030;2023-04-19T01:24:59;100409.28;;;10.91;46.57
80103;BME280;69410;47.648;19.030;2023-04-19T01:25:30;100405.94;;;10.89;46.83
80103;BME280;69410;47.648;19.030;2023-04-19T01:26:01;100405.25;;;10.87;46.34
80103;BME280;69410;47.648;19.030;2023-04-19T01:26:31;100408.44;;;10.90;46.98
80103;BME280;69410;47.648;19.030;2023-04-19T01:27:02;100404.25;;;10.88;46.58
80103;BME280;69410;47.648;19.030;2023-04-19T01:27:33;100401.88;;;10.84;47.17
80103;BME280;69410;47.648;19.030;2023-04-19T01:28:04;100401.31;;;10.81;47.67
80103;BME280;69410;47.648;19.030;2023-04-19T01:28:34;100407.72;;;10.78;46.71
80103;BME280;69410;47.648;19.030;2023-04-19T01:29:05;100397.28;;;10.77;46.71
80103;BME280;69410;47.648;19.030;2023-04-19T01:29:36;100397.28;;;10.77;46.73
80103;BME280;69410;47.648;19.030;2023-04-19T01:30:08;100401.03;;;10.74;47.92
80103;BME280;69410;47.648;19.030;2023-04-19T01:30:39;100403.50;;;10.76;46.71
80103;BME280;69410;47.648;19.030;2023-04-19T01:31:09;100401.72;;;10.76;46.81
80103;BME280;69410;47.648;19.030;2023-04-19T01:31:40;100401.59;;;10.78;46.55
80103;BME280;69410;47.648;19.030;2023-04-19T01:32:11;100398.25;;;10.76;46.51
80103;BME280;69410;47.648;19.030;2023-04-19T01:32:42;100398.25;;;10.76;46.37
80103;BME280;69410;47.648;19.030;2023-04-19T01:33:12;100402.00;;;10.73;46.52
80103;BME280;69410;47.648;19.030;2023-04-19T01:33:43;100400.31;;;10.72;47.08
80103;BME280;69410;47.648;19.030;2023-04-19T01:34:14;100399.47;;;10.72;47.06
80103;BME280;69410;47.648;19.030;2023-04-19T01:34:45;100390.88;;;10.70;46.49
80103;BME280;69410;47.648;19.030;2023-04-19T01:35:16;100394.38;;;10.70;46.96
80103;BME280;69410;47.648;19.030;2023-04-19T01:35:47;100401.44;;;10.70;47.69
80103;BME280;69410;47.648;19.030;2023-04-19T01:36:18;100400.03;;;10.66;47.22
80103;BME280;69410;47.648;19.030;2023-04-19T01:36:49;100395.16;;;10.61;47.55
80103;BME280;69410;47.648;19.030;2023-04-19T01:37:20;100397.91;;;10.60;48.26
80103;BME280;69410;47.648;19.030;2023-04-19T01:37:52;100396.09;;;10.60;48.27
80103;BME280;69410;47.648;19.030;2023-04-19T01:38:23;100397.78;;;10.61;47.88
80103;BME280;69410;47.648;19.030;2023-04-19T01:38:54;100395.59;;;10.66;47.06
80103;BME280;69410;47.648;19.030;2023-04-19T01:39:25;100399.19;;;10.65;48.07
80103;BME280;69410;47.648;19.030;2023-04-19T01:39:56;100398.72;;;10.60;48.83
80103;BME280;69410;47.648;19.030;2023-04-19T01:40:27;100397.22;;;10.58;48.38
80103;BME280;69410;47.648;19.030;2023-04-19T01:40:57;100393.75;;;10.57;48.46
80103;BME280;69410;47.648;19.030;2023-04-19T01:41:28;100396.38;;;10.57;48.43
80103;BME280;69410;47.648;19.030;2023-04-19T01:41:59;100397.22;;;10.58;49.11
80103;BME280;69410;47.648;19.030;2023-04-19T01:42:30;100401.50;;;10.59;48.47
80103;BME280;69410;47.648;19.030;2023-04-19T01:43:00;100390.84;;;10.60;48.06
80103;BME280;69410;47.648;19.030;2023-04-19T01:43:31;100401.50;;;10.59;49.23
80103;BME280;69410;47.648;19.030;2023-04-19T01:44:02;100399.28;;;10.54;49.45
80103;BME280;69410;47.648;19.030;2023-04-19T01:44:33;100399.50;;;10.51;48.93
80103;BME280;69410;47.648;19.030;2023-04-19T01:45:05;100394.50;;;10.48;50.22
80103;BME280;69410;47.648;19.030;2023-04-19T01:45:35;100393.94;;;10.45;50.59
80103;BME280;69410;47.648;19.030;2023-04-19T01:46:06;100390.75;;;10.41;51.63
80103;BME280;69410;47.648;19.030;2023-04-19T01:46:37;100394.31;;;10.40;51.21
80103;BME280;69410;47.648;19.030;2023-04-19T01:47:08;100392.91;;;10.36;50.90
80103;BME280;69410;47.648;19.030;2023-04-19T01:47:38;100389.34;;;10.37;49.39
80103;BME280;69410;47.648;19.030;2023-04-19T01:48:09;100393.38;;;10.41;48.59
80103;BME280;69410;47.648;19.030;2023-04-19T01:48:40;100386.44;;;10.40;49.11
80103;BME280;69410;47.648;19.030;2023-04-19T01:49:11;100383.69;;;10.42;49.38
80103;BME280;69410;47.648;19.030;2023-04-19T01:49:41;100393.00;;;10.46;48.28
80103;BME280;69410;47.648;19.030;2023-04-19T01:50:12;100394.66;;;10.47;49.57
80103;BME280;69410;47.648;19.030;2023-04-19T01:50:43;100392.03;;;10.47;49.39
80103;BME280;69410;47.648;19.030;2023-04-19T01:51:14;100386.75;;;10.47;49.65
80103;BME280;69410;47.648;19.030;2023-04-19T01:51:44;100384.69;;;10.50;48.59
80103;BME280;69410;47.648;19.030;2023-04-19T01:52:15;100386.50;;;10.50;48.56
80103;BME280;69410;47.648;19.030;2023-04-19T01:52:46;100382.91;;;10.51;48.94
80103;BME280;69410;47.648;19.030;2023-04-19T01:53:18;100388.84;;;10.53;48.00
80103;BME280;69410;47.648;19.030;2023-04-19T01:53:49;100388.75;;;10.54;48.20
80103;BME280;69410;47.648;19.030;2023-04-19T01:54:20;100385.28;;;10.54;48.48
80103;BME280;69410;47.648;19.030;2023-04-19T01:54:50;100387.06;;;10.53;49.16
80103;BME280;69410;47.648;19.030;2023-04-19T01:55:21;100385.28;;;10.54;49.71
80103;BME280;69410;47.648;19.030;2023-04-19T01:55:52;100385.66;;;10.49;51.29
80103;BME280;69410;47.648;19.030;2023-04-19T01:56:23;100378.72;;;10.48;50.08
80103;BME280;69410;47.648;19.030;2023-04-19T01:56:53;100385.53;;;10.51;50.09
80103;BME280;69410;47.648;19.030;2023-04-19T01:57:24;100385.53;;;10.51;49.72
80103;BME280;69410;47.648;19.030;2023-04-19T01:57:55;100384.53;;;10.52;49.75
80103;BME280;69410;47.648;19.030;2023-04-19T01:58:26;100388.84;;;10.53;49.64
80103;BME280;69410;47.648;19.030;2023-04-19T01:58:56;100383.09;;;10.59;47.91
80103;BME280;69410;47.648;19.030;2023-04-19T01:59:27;100384.34;;;10.64;47.37
80103;BME280;69410;47.648;19.030;2023-04-19T01:59:58;100386.00;;;10.65;47.57
80103;BME280;69410;47.648;19.030;2023-04-19T02:00:29;100387.69;;;10.66;47.37
80103;BME280;69410;47.648;19.030;2023-04-19T02:01:00;100385.63;;;10.70;46.87
80103;BME280;69410;47.648;19.030;2023-04-19T02:01:30;100384.63;;;10.71;46.05
80103;BME280;69410;47.648;19.030;2023-04-19T02:02:01;100385.63;;;10.70;48.02
80103;BME280;69410;47.648;19.030;2023-04-19T02:02:32;100382.84;;;10.71;47.02
80103;BME280;69410;47.648;19.030;2023-04-19T02:03:02;100383.28;;;10.76;46.21
80103;BME280;69410;47.648;19.030;2023-04-19T02:03:33;100388.03;;;10.82;46.52
80103;BME280;69410;47.648;19.030;2023-04-19T02:04:04;100382.75;;;10.82;47.32
80103;BME280;69410;47.648;19.030;2023-04-19T02:04:35;100384.69;;;10.80;47.37
80103;BME280;69410;47.648;19.030;2023-04-19T02:05:06;100378.44;;;10.81;46.81
80103;BME280;69410;47.648;19.030;2023-04-19T02:05:38;100375.25;;;10.78;47.02
80103;BME280;69410;47.648;19.030;2023-04-19T02:06:09;100382.75;;;10.82;47.38
80103;BME280;69410;47.648;19.030;2023-04-19T02:06:40;100380.53;;;10.88;47.33
80103;BME280;69410;47.648;19.030;2023-04-19T02:07:11;100377.22;;;10.95;45.44
80103;BME280;69410;47.648;19.030;2023-04-19T02:07:42;100384.47;;;11.03;45.44
80103;BME280;69410;47.648;19.030;2023-04-19T02:08:12;100374.06;;;11.01;46.57
80103;BME280;69410;47.648;19.030;2023-04-19T02:08:45;100382.94;;;11.00;46.58
80103;BME280;69410;47.648;19.030;2023-04-19T02:09:15;100381.53;;;10.96;47.73
80103;BME280;69410;47.648;19.030;2023-04-19T02:09:46;100378.34;;;10.93;47.06
80103;BME280;69410;47.648;19.030;2023-04-19T02:10:17;100377.78;;;10.89;48.11
80103;BME280;69410;47.648;19.030;2023-04-19T02:10:47;100384.00;;;10.88;47.59
80103;BME280;69410;47.648;19.030;2023-04-19T02:11:18;100375.16;;;10.89;47.43
80103;BME280;69410;47.648;19.030;2023-04-19T02:11:49;100381.25;;;10.90;48.04
80103;BME280;69410;47.648;19.030;2023-04-19T02:12:20;100384.00;;;10.88;46.92
80103;BME280;69410;47.648;19.030;2023-04-19T02:12:50;100379.84;;;10.86;47.97
80103;BME280;69410;47.648;19.030;2023-04-19T02:13:21;100379.28;;;10.82;48.17
80103;BME280;69410;47.648;19.030;2023-04-19T02:13:52;100374.97;;;10.81;47.63
80103;BME280;69410;47.648;19.030;2023-04-19T02:14:23;100378.84;;;10.77;47.63
80103;BME280;69410;47.648;19.030;2023-04-19T02:14:53;100375.38;;;10.76;47.58
80103;BME280;69410;47.648;19.030;2023-04-19T02:15:24;100374.09;;;10.71;49.00
80103;BME280;69410;47.648;19.030;2023-04-19T02:15:55;100371.63;;;10.69;48.97
80103;BME280;69410;47.648;19.030;2023-04-19T02:16:26;100377.00;;;10.68;48.79
80103;BME280;69410;47.648;19.030;2023-04-19T02:16:57;100373.41;;;10.69;48.21
80103;BME280;69410;47.648;19.030;2023-04-19T02:17:28;100370.91;;;10.67;48.88
80103;BME280;69410;47.648;19.030;2023-04-19T02:17:58;100372.28;;;10.62;49.27
80103;BME280;69410;47.648;19.030;2023-04-19T02:18:29;100369.06;;;10.58;50.28
80103;BME280;69410;47.648;19.030;2023-04-19T02:19:00;100370.31;;;10.54;50.15
80103;BME280;69410;47.648;19.030;2023-04-19T02:19:31;100368.63;;;10.53;50.21
80103;BME280;69410;47.648;19.030;2023-04-19T02:20:02;100370.44;;;10.53;49.45
80103;BME280;69410;47.648;19.030;2023-04-19T02:20:33;100376.53;;;10.53;48.81
80103;BME280;69410;47.648;19.030;2023-04-19T02:21:04;100375.00;;;10.51;49.45
80103;BME280;69410;47.648;19.030;2023-04-19T02:21:35;100376.22;;;10.47;50.52
80103;BME280;69410;47.648;19.030;2023-04-19T02:22:06;100371.19;;;10.44;50.01
80103;BME280;69410;47.648;19.030;2023-04-19T02:22:36;100372.56;;;10.38;50.52
80103;BME280;69410;47.648;19.030;2023-04-19T02:23:07;100381.56;;;10.35;50.92
80103;BME280;69410;47.648;19.030;2023-04-19T02:23:38;100373.09;;;10.32;51.75
80103;BME280;69410;47.648;19.030;2023-04-19T02:24:10;100374.19;;;10.29;51.55
80103;BME280;69410;47.648;19.030;2023-04-19T02:24:41;100369.03;;;10.28;51.33
80103;BME280;69410;47.648;19.030;2023-04-19T02:25:12;100372.66;;;10.27;52.01
80103;BME280;69410;47.648;19.030;2023-04-19T02:25:42;100368.47;;;10.24;51.67
80103;BME280;69410;47.648;19.030;2023-04-19T02:26:13;100376.38;;;10.24;51.41
80103;BME280;69410;47.648;19.030;2023-04-19T02:26:44;100371.00;;;10.26;49.93
80103;BME280;69410;47.648;19.030;2023-04-19T02:27:15;100372.66;;;10.27;50.77
80103;BME280;69410;47.648;19.030;2023-04-19T02:27:45;100376.94;;;10.28;49.83
80103;BME280;69410;47.648;19.030;2023-04-19T02:28:16;100369.88;;;10.28;51.50
80103;BME280;69410;47.648;19.030;2023-04-19T02:28:49;100374.56;;;10.25;51.90
80103;BME280;69410;47.648;19.030;2023-04-19T02:29:19;100373.47;;;10.27;50.00
80103;BME280;69410;47.648;19.030;2023-04-19T02:29:50;100374.19;;;10.29;50.48
80103;BME280;69410;47.648;19.030;2023-04-19T02:30:21;100373.53;;;10.37;49.54
80103;BME280;69410;47.648;19.030;2023-04-19T02:30:52;100377.28;;;10.34;50.39
80103;BME280;69410;47.648;19.030;2023-04-19T02:31:22;100373.72;;;10.24;52.48
80103;BME280;69410;47.648;19.030;2023-04-19T02:31:53;100372.59;;;10.17;52.25
80103;BME280;69410;47.648;19.030;2023-04-19T02:32:24;100370.56;;;10.10;52.19
80103;BME280;69410;47.648;19.030;2023-04-19T02:32:55;100375.00;;;10.09;51.23
80103;BME280;69410;47.648;19.030;2023-04-19T02:33:25;100373.06;;;10.11;51.44
80103;BME280;69410;47.648;19.030;2023-04-19T02:33:56;100370.31;;;10.13;51.60
80103;BME280;69410;47.648;19.030;2023-04-19T02:34:27;100368.63;;;10.12;51.38
80103;BME280;69410;47.648;19.030;2023-04-19T02:34:58;100369.75;;;10.09;52.26
80103;BME280;69410;47.648;19.030;2023-04-19T02:35:28;100370.56;;;10.10;52.42
80103;BME280;69410;47.648;19.030;2023-04-19T02:35:59;100368.91;;;10.09;52.31
80103;BME280;69410;47.648;19.030;2023-04-19T02:36:30;100371.53;;;10.09;51.92
80103;BME280;69410;47.648;19.030;2023-04-19T02:37:00;100365.59;;;10.07;51.77
80103;BME280;69410;47.648;19.030;2023-04-19T02:37:31;100357.22;;;10.02;51.78
80103;BME280;69410;47.648;19.030;2023-04-19T02:38:03;100362.34;;;10.03;52.22
80103;BME280;69410;47.648;19.030;2023-04-19T02:38:33;100363.06;;;10.05;52.21
80103;BME280;69410;47.648;19.030;2023-04-19T02:39:04;100359.88;;;10.02;52.35
80103;BME280;69410;47.648;19.030;2023-04-19T02:39:36;100360.69;;;10.02;52.57